Time;durP1;ratioP1;P1;durP2;ratioP2;P2;SDS_P1;SDS_P2;PMS_P1;PMS_P2;Temp;Humidity;BMP_temperature;BMP_pressure;BME280_temperature;BME280_humidity;BME280_pressure;Samples;Min_cycle;Max_cycle;Signal;HPM_P1;HPM_P2
2021/08/15 00:29:35;;;;;;;13.07;5.73;;;;;;;16.61;68.49;100423.65;21128304;80;99934;-86
2021/08/15 00:59:39;;;;;;;10.98;5.90;;;;;;;16.31;69.92;100420.26;21155882;81;99786;-85
2021/08/15 01:29:44;;;;;;;12.30;7.00;;;;;;;16.04;71.50;100389.44;21089082;82;99837;-86
2021/08/15 01:59:43;;;;;;;10.90;6.03;;;;;;;15.80;72.46;100391.28;21074234;81;99618;-86
2021/08/15 02:29:44;;;;;;;13.13;6.95;;;;;;;15.61;73.91;100384.96;21060858;80;99727;-86
2021/08/15 02:59:45;;;;;;;;;;;;;;;15.44;75.26;100410.08;21088311;81;99821;-86
2021/08/15 03:29:46;;;;;;;12.82;6.37;;;;;;;15.28;77.44;100411.18;20643799;83;86131;-86
2021/08/15 03:59:47;;;;;;;12.20;6.65;;;;;;;15.08;75.24;100419.25;21035801;81;100179;-85
2021/08/15 04:29:48;;;;;;;13.68;6.85;;;;;;;14.92;75.19;100426.48;20953644;82;99887;-86
2021/08/15 04:59:49;;;;;;;14.40;7.75;;;;;;;14.90;76.06;100422.76;21133580;80;99665;-86
2021/08/15 05:29:49;;;;;;;14.07;7.00;;;;;;;15.20;77.93;100413.83;20530777;84;99772;-87
2021/08/15 05:59:50;;;;;;;12.88;5.95;;;;;;;15.77;78.27;100419.08;21200110;80;100306;-84
2021/08/15 06:29:51;;;;;;;11.90;4.97;;;;;;;19.44;76.02;100444.75;21125576;81;99754;-86
2021/08/15 06:59:53;;;;;;;9.38;3.87;;;;;;;21.88;66.63;100444.91;21063259;80;99877;-83
2021/08/15 07:29:55;;;;;;;11.93;3.83;;;;;;;22.40;61.58;100456.27;21038368;80;99621;-88
2021/08/15 07:59:57;;;;;;;11.28;3.72;;;;;;;22.53;60.38;100450.78;21052726;81;101097;-85
2021/08/15 08:29:58;;;;;;;14.23;4.15;;;;;;;23.59;57.82;100451.61;21073135;81;99676;-85
2021/08/15 09:00:07;;;;;;;11.50;3.75;;;;;;;24.85;55.56;100458.69;21090739;80;99867;-84
2021/08/15 09:30:27;;;;;;;12.25;4.22;;;;;;;26.33;53.03;100442.98;20945577;81;99861;-86
2021/08/15 10:00:31;;;;;;;11.60;4.50;;;;;;;28.80;47.33;100445.87;20963248;81;99550;-82
2021/08/15 10:30:37;;;;;;;9.58;3.35;;;;;;;30.89;44.38;100400.88;20936974;81;99461;-83
2021/08/15 11:00:42;;;;;;;13.03;3.80;;;;;;;31.01;40.08;100387.45;20897462;81;99206;-82
2021/08/15 11:30:45;;;;;;;9.75;3.17;;;;;;;31.60;39.09;100362.27;21099399;82;99906;-82
2021/08/15 12:00:47;;;;;;;11.68;5.00;;;;;;;31.66;36.95;100345.94;21143212;82;100947;-80
2021/08/15 12:30:49;;;;;;;9.55;3.58;;;;;;;31.47;36.77;100337.85;21193849;82;101351;-84
2021/08/15 13:00:51;;;;;;;8.80;3.70;;;;;;;31.08;36.86;100307.30;21218683;81;99892;-82
2021/08/15 13:30:52;;;;;;;10.45;3.25;;;;;;;30.97;37.61;100294.55;21100566;82;99389;-83
2021/08/15 14:00:53;;;;;;;6.92;3.65;;;;;;;29.97;37.56;100265.33;21054727;82;99440;-82
2021/08/15 14:30:54;;;;;;;7.73;3.27;;;;;;;29.70;36.54;100236.27;21057470;82;99694;-82
2021/08/15 15:00:55;;;;;;;7.90;3.15;;;;;;;29.35;37.47;100189.11;21053897;81;100873;-86
2021/08/15 15:30:56;;;;;;;8.05;3.20;;;;;;;28.76;38.02;100159.23;20680685;83;99604;-82
2021/08/15 16:00:57;;;;;;;10.00;3.40;;;;;;;28.11;39.62;100137.70;21176866;82;99360;-81
2021/08/15 16:30:58;;;;;;;10.43;3.42;;;;;;;27.43;40.69;100118.44;20992245;82;99392;-81
2021/08/15 17:00:59;;;;;;;10.48;3.77;;;;;;;26.74;42.26;100100.30;20985428;82;99729;-80
2021/08/15 17:31:00;;;;;;;7.45;3.42;;;;;;;26.24;43.08;100084.11;21072215;82;99530;-81
2021/08/15 18:01:01;;;;;;;10.75;3.62;;;;;;;25.42;45.22;100078.55;21130790;82;99516;-81
2021/08/15 18:31:03;;;;;;;11.08;3.83;;;;;;;24.60;49.11;100077.72;21078553;81;100069;-81
2021/08/15 19:01:04;;;;;;;10.48;5.17;;;;;;;23.19;52.57;100077.39;21034342;81;100324;-81
2021/08/15 19:31:06;;;;;;;12.82;5.12;;;;;;;21.94;56.54;100083.80;21072045;82;99874;-81
2021/08/15 20:01:07;;;;;;;9.30;4.75;;;;;;;21.10;59.67;100078.66;21206045;82;99649;-81
2021/08/15 20:31:08;;;;;;;9.45;4.65;;;;;;;20.43;61.52;100052.31;21217602;82;99380;-81
2021/08/15 21:01:09;;;;;;;11.13;5.43;;;;;;;20.13;63.12;100030.62;21220476;80;99869;-81
2021/08/15 21:31:10;;;;;;;10.58;5.80;;;;;;;19.76;64.64;100004.11;21170922;81;99894;-82
2021/08/15 22:01:11;;;;;;;13.88;6.10;;;;;;;19.39;67.24;99973.60;21128184;81;99774;-82
2021/08/15 22:31:12;;;;;;;10.32;6.15;;;;;;;19.19;67.74;99935.97;21185658;82;99276;-84
2021/08/15 23:01:13;;;;;;;12.27;6.37;;;;;;;18.88;68.80;99912.64;21195202;81;99621;-85
2021/08/15 23:31:14;;;;;;;14.28;6.12;;;;;;;18.84;69.18;99907.17;21197463;80;99365;-84
